Pagina principale
METAR-TAF:

METAR-TAF

Aeroporti :

Aeroporto di Ulan Bator-Gengis Khan

Ulan Bator, Mongolia

latitudine: 47-55N, longitudine: 106-52E, altezza: 1306 m

Osservazione

Il bollettino è stato emesso 32 minuti fa, alle 06:00 UTC
Vento 4 kt da direzioni variabili
Temperature 13°C
Umidità 30%
Pressione 1022 hPa
Visibilità 10 km o più
nessuna nube inferiore a 1500 m e nessun cumulonembo

METAR: ZMUB 230600Z VRB02MPS CAVOK 13/M04 Q1022 NOSIG RMK QFE658.7 31

Ora: 15:32 (06:32 UTC)

Previsione

Il bollettino è stato emesso 1 ora e 52 minuti fa, alle 04:40 UTC
Previsione valida dal 23 alle 06 UTC al 24 alle 12 UTC
Vento 4 kt da direzioni variabili
Visibilità 10 km o più
Nubi sparse ad un'altezza di 10000 ft

TAF: ZMUB 230440Z 2306/2412 VRB02MPS 9999 SCT100 TX13/2307Z TNM05/2321Z

Osservazioni e previsioni meteorologiche di più di 4000 aeroporti (messaggi METAR e TAF).

Le stazioni disponibili sono rappresentate dai dischi gialli e rossi sulla carta.

Puntare il mouse per vedere il nome della stazione.

Clicca sopra per visualizzare le osservazioni e previsioni meteorologiche.

Per cambiare la mappa : fare clic sui pulsanti verdi con una croce nera per ingrandire, il pulsante verde con un trattino per diminuire, o sulla freccia verde per le mappe adiacenti.


METAR-TAF: